sensor_id;sensor_type;location;lat;lon;timestamp;P1;durP1;ratioP1;P2;durP2;ratioP2
65825;SDS011;52586;-43.152;172.732;2022-07-06T00:02:10;5.28;;;2.05;;
65825;SDS011;52586;-43.152;172.732;2022-07-06T00:04:41;3.88;;;1.90;;
65825;SDS011;52586;-43.152;172.732;2022-07-06T00:07:12;2.83;;;1.85;;
65825;SDS011;52586;-43.152;172.732;2022-07-06T00:09:43;3.78;;;1.90;;
65825;SDS011;52586;-43.152;172.732;2022-07-06T00:12:13;3.45;;;2.28;;
65825;SDS011;52586;-43.152;172.732;2022-07-06T00:14:46;3.92;;;2.28;;
65825;SDS011;52586;-43.152;172.732;2022-07-06T00:17:17;3.47;;;1.80;;
65825;SDS011;52586;-43.152;172.732;2022-07-06T00:19:47;3.25;;;1.80;;
65825;SDS011;52586;-43.152;172.732;2022-07-06T00:22:18;4.30;;;1.90;;
65825;SDS011;52586;-43.152;172.732;2022-07-06T00:24:49;4.07;;;1.85;;
65825;SDS011;52586;-43.152;172.732;2022-07-06T00:27:19;4.00;;;2.20;;
65825;SDS011;52586;-43.152;172.732;2022-07-06T00:29:52;3.92;;;1.98;;
65825;SDS011;52586;-43.152;172.732;2022-07-06T00:32:23;5.00;;;2.13;;
65825;SDS011;52586;-43.152;172.732;2022-07-06T00:34:54;5.88;;;2.35;;
65825;SDS011;52586;-43.152;172.732;2022-07-06T00:37:24;3.97;;;2.30;;
65825;SDS011;52586;-43.152;172.732;2022-07-06T00:39:55;4.50;;;1.95;;
65825;SDS011;52586;-43.152;172.732;2022-07-06T00:42:26;3.97;;;1.90;;
65825;SDS011;52586;-43.152;172.732;2022-07-06T00:44:58;5.20;;;2.17;;
65825;SDS011;52586;-43.152;172.732;2022-07-06T00:47:29;3.40;;;2.08;;
65825;SDS011;52586;-43.152;172.732;2022-07-06T00:50:00;3.95;;;2.20;;
65825;SDS011;52586;-43.152;172.732;2022-07-06T00:52:44;2.75;;;1.80;;
65825;SDS011;52586;-43.152;172.732;2022-07-06T00:55:16;3.58;;;2.10;;
65825;SDS011;52586;-43.152;172.732;2022-07-06T00:57:48;5.88;;;2.33;;
65825;SDS011;52586;-43.152;172.732;2022-07-06T01:00:22;5.50;;;2.13;;
65825;SDS011;52586;-43.152;172.732;2022-07-06T01:02:53;3.38;;;1.90;;
65825;SDS011;52586;-43.152;172.732;2022-07-06T01:05:24;3.88;;;1.90;;
65825;SDS011;52586;-43.152;172.732;2022-07-06T01:07:55;4.00;;;1.90;;
65825;SDS011;52586;-43.152;172.732;2022-07-06T01:10:26;3.97;;;1.90;;
65825;SDS011;52586;-43.152;172.732;2022-07-06T01:12:57;3.95;;;1.92;;
65825;SDS011;52586;-43.152;172.732;2022-07-06T01:15:30;4.47;;;1.95;;
65825;SDS011;52586;-43.152;172.732;2022-07-06T01:18:01;3.70;;;2.03;;
65825;SDS011;52586;-43.152;172.732;2022-07-06T01:20:34;4.32;;;2.08;;
65825;SDS011;52586;-43.152;172.732;2022-07-06T01:23:05;3.35;;;1.90;;
65825;SDS011;52586;-43.152;172.732;2022-07-06T01:25:35;2.72;;;1.70;;
65825;SDS011;52586;-43.152;172.732;2022-07-06T01:28:06;3.38;;;1.65;;
65825;SDS011;52586;-43.152;172.732;2022-07-06T01:30:37;4.15;;;1.85;;
65825;SDS011;52586;-43.152;172.732;2022-07-06T01:33:07;3.60;;;1.80;;
65825;SDS011;52586;-43.152;172.732;2022-07-06T01:35:40;3.70;;;1.98;;
65825;SDS011;52586;-43.152;172.732;2022-07-06T01:38:11;4.20;;;2.05;;
65825;SDS011;52586;-43.152;172.732;2022-07-06T01:40:41;2.75;;;1.92;;
65825;SDS011;52586;-43.152;172.732;2022-07-06T01:43:12;4.25;;;1.65;;
65825;SDS011;52586;-43.152;172.732;2022-07-06T01:45:43;4.28;;;2.28;;
65825;SDS011;52586;-43.152;172.732;2022-07-06T01:48:14;3.72;;;1.88;;
65825;SDS011;52586;-43.152;172.732;2022-07-06T01:50:46;4.57;;;1.83;;
65825;SDS011;52586;-43.152;172.732;2022-07-06T01:53:17;2.67;;;1.90;;
65825;SDS011;52586;-43.152;172.732;2022-07-06T01:55:48;3.28;;;2.08;;
65825;SDS011;52586;-43.152;172.732;2022-07-06T01:58:18;2.70;;;1.55;;
65825;SDS011;52586;-43.152;172.732;2022-07-06T02:00:49;4.18;;;2.00;;
65825;SDS011;52586;-43.152;172.732;2022-07-06T02:03:20;3.85;;;1.90;;
65825;SDS011;52586;-43.152;172.732;2022-07-06T02:05:52;4.43;;;2.00;;
65825;SDS011;52586;-43.152;172.732;2022-07-06T02:08:23;3.85;;;1.65;;
65825;SDS011;52586;-43.152;172.732;2022-07-06T02:10:54;2.97;;;1.80;;
65825;SDS011;52586;-43.152;172.732;2022-07-06T02:13:25;2.22;;;1.60;;
65825;SDS011;52586;-43.152;172.732;2022-07-06T02:15:56;3.28;;;1.70;;
65825;SDS011;52586;-43.152;172.732;2022-07-06T02:18:26;3.83;;;2.10;;
65825;SDS011;52586;-43.152;172.732;2022-07-06T02:20:59;2.97;;;2.15;;
65825;SDS011;52586;-43.152;172.732;2022-07-06T02:23:30;3.42;;;1.95;;
65825;SDS011;52586;-43.152;172.732;2022-07-06T02:26:01;3.25;;;1.90;;
65825;SDS011;52586;-43.152;172.732;2022-07-06T02:28:32;4.47;;;1.90;;
65825;SDS011;52586;-43.152;172.732;2022-07-06T02:31:02;4.25;;;2.15;;
65825;SDS011;52586;-43.152;172.732;2022-07-06T02:33:33;3.88;;;2.28;;
65825;SDS011;52586;-43.152;172.732;2022-07-06T02:36:06;5.00;;;2.33;;
65825;SDS011;52586;-43.152;172.732;2022-07-06T02:38:37;3.33;;;2.05;;
65825;SDS011;52586;-43.152;172.732;2022-07-06T02:41:07;3.88;;;2.00;;
65825;SDS011;52586;-43.152;172.732;2022-07-06T02:43:38;3.22;;;2.08;;
65825;SDS011;52586;-43.152;172.732;2022-07-06T02:46:09;2.28;;;1.75;;
65825;SDS011;52586;-43.152;172.732;2022-07-06T02:48:40;4.30;;;2.20;;
65825;SDS011;52586;-43.152;172.732;2022-07-06T02:51:12;3.97;;;2.00;;
65825;SDS011;52586;-43.152;172.732;2022-07-06T02:53:43;2.75;;;1.90;;
65825;SDS011;52586;-43.152;172.732;2022-07-06T02:56:14;3.92;;;1.90;;
65825;SDS011;52586;-43.152;172.732;2022-07-06T02:58:44;5.28;;;2.30;;
65825;SDS011;52586;-43.152;172.732;2022-07-06T03:01:15;3.35;;;1.80;;
65825;SDS011;52586;-43.152;172.732;2022-07-06T03:03:46;3.63;;;1.88;;
65825;SDS011;52586;-43.152;172.732;2022-07-06T03:06:18;4.47;;;2.05;;
65825;SDS011;52586;-43.152;172.732;2022-07-06T03:08:49;4.70;;;2.00;;
65825;SDS011;52586;-43.152;172.732;2022-07-06T03:11:20;2.95;;;1.73;;
65825;SDS011;52586;-43.152;172.732;2022-07-06T03:13:50;2.63;;;1.95;;
65825;SDS011;52586;-43.152;172.732;2022-07-06T03:16:21;4.60;;;1.63;;
65825;SDS011;52586;-43.152;172.732;2022-07-06T03:18:52;3.00;;;1.92;;
65825;SDS011;52586;-43.152;172.732;2022-07-06T03:21:24;4.57;;;2.20;;
65825;SDS011;52586;-43.152;172.732;2022-07-06T03:23:55;3.10;;;1.80;;
65825;SDS011;52586;-43.152;172.732;2022-07-06T03:26:26;4.40;;;2.00;;
65825;SDS011;52586;-43.152;172.732;2022-07-06T03:28:56;4.53;;;2.13;;
65825;SDS011;52586;-43.152;172.732;2022-07-06T03:31:27;3.45;;;2.33;;
65825;SDS011;52586;-43.152;172.732;2022-07-06T03:33:58;4.28;;;2.00;;
65825;SDS011;52586;-43.152;172.732;2022-07-06T03:36:30;4.47;;;2.20;;
65825;SDS011;52586;-43.152;172.732;2022-07-06T03:39:01;3.20;;;1.88;;
65825;SDS011;52586;-43.152;172.732;2022-07-06T03:41:32;3.47;;;2.20;;
65825;SDS011;52586;-43.152;172.732;2022-07-06T03:44:03;4.45;;;2.05;;
65825;SDS011;52586;-43.152;172.732;2022-07-06T03:46:34;4.13;;;2.25;;
65825;SDS011;52586;-43.152;172.732;2022-07-06T03:49:04;3.88;;;1.80;;
65825;SDS011;52586;-43.152;172.732;2022-07-06T03:51:37;3.65;;;2.28;;
65825;SDS011;52586;-43.152;172.732;2022-07-06T03:54:07;4.63;;;2.67;;
65825;SDS011;52586;-43.152;172.732;2022-07-06T03:56:38;3.10;;;2.00;;
65825;SDS011;52586;-43.152;172.732;2022-07-06T03:59:09;3.50;;;1.90;;
65825;SDS011;52586;-43.152;172.732;2022-07-06T04:01:40;4.65;;;2.40;;
65825;SDS011;52586;-43.152;172.732;2022-07-06T04:04:11;5.28;;;2.08;;
65825;SDS011;52586;-43.152;172.732;2022-07-06T04:06:43;3.85;;;1.85;;
65825;SDS011;52586;-43.152;172.732;2022-07-06T04:09:14;3.83;;;1.92;;
65825;SDS011;52586;-43.152;172.732;2022-07-06T04:11:46;3.78;;;2.15;;
65825;SDS011;52586;-43.152;172.732;2022-07-06T04:14:17;4.25;;;2.25;;
65825;SDS011;52586;-43.152;172.732;2022-07-06T04:16:48;4.53;;;2.38;;
65825;SDS011;52586;-43.152;172.732;2022-07-06T04:19:19;4.13;;;2.53;;
65825;SDS011;52586;-43.152;172.732;2022-07-06T04:21:51;7.70;;;4.00;;
65825;SDS011;52586;-43.152;172.732;2022-07-06T04:24:22;9.27;;;5.32;;
65825;SDS011;52586;-43.152;172.732;2022-07-06T04:26:53;8.88;;;4.97;;
65825;SDS011;52586;-43.152;172.732;2022-07-06T04:29:23;10.05;;;5.68;;
65825;SDS011;52586;-43.152;172.732;2022-07-06T04:31:54;13.85;;;8.23;;
65825;SDS011;52586;-43.152;172.732;2022-07-06T04:34:25;14.45;;;8.38;;
65825;SDS011;52586;-43.152;172.732;2022-07-06T04:36:57;17.60;;;9.48;;
65825;SDS011;52586;-43.152;172.732;2022-07-06T04:39:28;19.80;;;10.35;;
65825;SDS011;52586;-43.152;172.732;2022-07-06T04:41:59;18.02;;;9.68;;
65825;SDS011;52586;-43.152;172.732;2022-07-06T04:44:29;16.85;;;8.93;;
65825;SDS011;52586;-43.152;172.732;2022-07-06T04:47:00;19.45;;;10.55;;
65825;SDS011;52586;-43.152;172.732;2022-07-06T04:49:31;21.15;;;10.60;;
65825;SDS011;52586;-43.152;172.732;2022-07-06T04:52:04;19.17;;;10.75;;
65825;SDS011;52586;-43.152;172.732;2022-07-06T04:54:35;23.88;;;12.15;;
65825;SDS011;52586;-43.152;172.732;2022-07-06T04:57:06;21.88;;;13.75;;
65825;SDS011;52586;-43.152;172.732;2022-07-06T04:59:43;22.77;;;12.18;;
65825;SDS011;52586;-43.152;172.732;2022-07-06T05:02:13;20.50;;;12.27;;
65825;SDS011;52586;-43.152;172.732;2022-07-06T05:04:44;19.90;;;11.68;;
65825;SDS011;52586;-43.152;172.732;2022-07-06T05:07:17;26.00;;;13.45;;
65825;SDS011;52586;-43.152;172.732;2022-07-06T05:09:48;24.55;;;12.85;;
65825;SDS011;52586;-43.152;172.732;2022-07-06T05:12:18;24.40;;;12.50;;
65825;SDS011;52586;-43.152;172.732;2022-07-06T05:14:49;22.02;;;12.27;;
65825;SDS011;52586;-43.152;172.732;2022-07-06T05:17:20;21.65;;;12.55;;
65825;SDS011;52586;-43.152;172.732;2022-07-06T05:19:50;23.73;;;12.15;;
65825;SDS011;52586;-43.152;172.732;2022-07-06T05:22:23;25.17;;;12.43;;
65825;SDS011;52586;-43.152;172.732;2022-07-06T05:24:54;22.60;;;13.02;;
65825;SDS011;52586;-43.152;172.732;2022-07-06T05:27:24;21.23;;;12.45;;
65825;SDS011;52586;-43.152;172.732;2022-07-06T05:29:55;25.13;;;13.15;;
65825;SDS011;52586;-43.152;172.732;2022-07-06T05:32:26;26.55;;;13.70;;
65825;SDS011;52586;-43.152;172.732;2022-07-06T05:34:57;21.23;;;11.77;;
65825;SDS011;52586;-43.152;172.732;2022-07-06T05:37:29;22.08;;;12.68;;
65825;SDS011;52586;-43.152;172.732;2022-07-06T05:40:00;22.85;;;12.70;;
65825;SDS011;52586;-43.152;172.732;2022-07-06T05:42:30;23.27;;;13.38;;
65825;SDS011;52586;-43.152;172.732;2022-07-06T05:45:01;22.75;;;12.93;;
65825;SDS011;52586;-43.152;172.732;2022-07-06T05:47:32;23.50;;;12.70;;
65825;SDS011;52586;-43.152;172.732;2022-07-06T05:50:19;20.88;;;12.15;;
65825;SDS011;52586;-43.152;172.732;2022-07-06T05:52:57;23.23;;;12.88;;
65825;SDS011;52586;-43.152;172.732;2022-07-06T05:55:28;22.05;;;11.98;;
65825;SDS011;52586;-43.152;172.732;2022-07-06T05:57:59;24.13;;;13.95;;
65825;SDS011;52586;-43.152;172.732;2022-07-06T06:00:30;23.08;;;12.77;;
65825;SDS011;52586;-43.152;172.732;2022-07-06T06:03:00;20.67;;;12.30;;
65825;SDS011;52586;-43.152;172.732;2022-07-06T06:05:31;20.10;;;12.32;;
65825;SDS011;52586;-43.152;172.732;2022-07-06T06:08:04;22.67;;;12.10;;
65825;SDS011;52586;-43.152;172.732;2022-07-06T06:10:35;18.85;;;12.10;;
65825;SDS011;52586;-43.152;172.732;2022-07-06T06:13:06;24.83;;;13.20;;
65825;SDS011;52586;-43.152;172.732;2022-07-06T06:15:36;19.50;;;11.63;;
65825;SDS011;52586;-43.152;172.732;2022-07-06T06:18:07;18.45;;;11.52;;
65825;SDS011;52586;-43.152;172.732;2022-07-06T06:20:38;21.73;;;12.23;;
65825;SDS011;52586;-43.152;172.732;2022-07-06T06:23:11;21.48;;;12.18;;
65825;SDS011;52586;-43.152;172.732;2022-07-06T06:25:42;23.65;;;12.57;;
65825;SDS011;52586;-43.152;172.732;2022-07-06T06:28:12;20.10;;;10.93;;
65825;SDS011;52586;-43.152;172.732;2022-07-06T06:30:43;20.90;;;11.90;;
65825;SDS011;52586;-43.152;172.732;2022-07-06T06:33:14;19.40;;;11.15;;
65825;SDS011;52586;-43.152;172.732;2022-07-06T06:35:45;20.35;;;11.18;;
65825;SDS011;52586;-43.152;172.732;2022-07-06T06:38:19;20.25;;;11.30;;
65825;SDS011;52586;-43.152;172.732;2022-07-06T06:40:52;21.02;;;11.65;;
65825;SDS011;52586;-43.152;172.732;2022-07-06T06:43:22;17.73;;;10.75;;
65825;SDS011;52586;-43.152;172.732;2022-07-06T06:45:53;17.45;;;9.98;;
65825;SDS011;52586;-43.152;172.732;2022-07-06T06:48:24;17.20;;;10.20;;
65825;SDS011;52586;-43.152;172.732;2022-07-06T06:50:55;17.73;;;10.63;;
65825;SDS011;52586;-43.152;172.732;2022-07-06T06:53:27;19.20;;;10.93;;
65825;SDS011;52586;-43.152;172.732;2022-07-06T06:55:58;19.02;;;9.98;;
65825;SDS011;52586;-43.152;172.732;2022-07-06T06:58:29;16.80;;;10.27;;
65825;SDS011;52586;-43.152;172.732;2022-07-06T07:00:59;18.85;;;10.23;;
65825;SDS011;52586;-43.152;172.732;2022-07-06T07:03:30;19.20;;;10.30;;
65825;SDS011;52586;-43.152;172.732;2022-07-06T07:06:01;18.85;;;10.32;;
65825;SDS011;52586;-43.152;172.732;2022-07-06T07:08:33;17.35;;;10.13;;
65825;SDS011;52586;-43.152;172.732;2022-07-06T07:11:04;17.77;;;10.32;;
65825;SDS011;52586;-43.152;172.732;2022-07-06T07:13:35;17.25;;;10.68;;
65825;SDS011;52586;-43.152;172.732;2022-07-06T07:16:06;17.80;;;10.15;;
65825;SDS011;52586;-43.152;172.732;2022-07-06T07:18:36;17.35;;;10.27;;
65825;SDS011;52586;-43.152;172.732;2022-07-06T07:21:07;16.08;;;10.30;;
65825;SDS011;52586;-43.152;172.732;2022-07-06T07:23:40;19.15;;;10.50;;
65825;SDS011;52586;-43.152;172.732;2022-07-06T07:26:10;18.35;;;9.88;;
65825;SDS011;52586;-43.152;172.732;2022-07-06T07:28:41;19.30;;;10.07;;
65825;SDS011;52586;-43.152;172.732;2022-07-06T07:31:12;16.75;;;9.38;;
65825;SDS011;52586;-43.152;172.732;2022-07-06T07:33:43;18.08;;;10.25;;
65825;SDS011;52586;-43.152;172.732;2022-07-06T07:36:14;17.15;;;9.77;;
65825;SDS011;52586;-43.152;172.732;2022-07-06T07:38:47;14.95;;;9.32;;
65825;SDS011;52586;-43.152;172.732;2022-07-06T07:41:17;17.45;;;10.05;;
65825;SDS011;52586;-43.152;172.732;2022-07-06T07:43:48;15.82;;;9.02;;
65825;SDS011;52586;-43.152;172.732;2022-07-06T07:46:19;16.65;;;9.52;;
65825;SDS011;52586;-43.152;172.732;2022-07-06T07:48:49;17.38;;;9.85;;
65825;SDS011;52586;-43.152;172.732;2022-07-06T07:51:20;19.00;;;9.88;;
65825;SDS011;52586;-43.152;172.732;2022-07-06T07:53:52;17.48;;;10.13;;
65825;SDS011;52586;-43.152;172.732;2022-07-06T07:56:23;18.50;;;10.25;;
65825;SDS011;52586;-43.152;172.732;2022-07-06T07:58:54;20.33;;;10.98;;
65825;SDS011;52586;-43.152;172.732;2022-07-06T08:01:25;21.33;;;10.65;;
65825;SDS011;52586;-43.152;172.732;2022-07-06T08:03:55;18.70;;;10.15;;
65825;SDS011;52586;-43.152;172.732;2022-07-06T08:06:26;17.85;;;9.38;;
65825;SDS011;52586;-43.152;172.732;2022-07-06T08:08:59;16.98;;;10.25;;
65825;SDS011;52586;-43.152;172.732;2022-07-06T08:11:31;18.27;;;10.70;;
65825;SDS011;52586;-43.152;172.732;2022-07-06T08:14:01;17.42;;;9.90;;
65825;SDS011;52586;-43.152;172.732;2022-07-06T08:16:32;18.63;;;9.48;;
65825;SDS011;52586;-43.152;172.732;2022-07-06T08:19:03;19.98;;;10.30;;
65825;SDS011;52586;-43.152;172.732;2022-07-06T08:21:34;19.40;;;10.13;;
65825;SDS011;52586;-43.152;172.732;2022-07-06T08:24:07;18.23;;;9.70;;
65825;SDS011;52586;-43.152;172.732;2022-07-06T08:26:38;18.67;;;10.05;;
65825;SDS011;52586;-43.152;172.732;2022-07-06T08:29:09;16.10;;;9.32;;
65825;SDS011;52586;-43.152;172.732;2022-07-06T08:31:39;18.50;;;10.23;;
65825;SDS011;52586;-43.152;172.732;2022-07-06T08:34:10;17.05;;;9.27;;
65825;SDS011;52586;-43.152;172.732;2022-07-06T08:36:41;14.30;;;9.32;;
65825;SDS011;52586;-43.152;172.732;2022-07-06T08:39:13;17.83;;;10.75;;
65825;SDS011;52586;-43.152;172.732;2022-07-06T08:41:45;15.07;;;8.80;;
65825;SDS011;52586;-43.152;172.732;2022-07-06T08:44:18;18.70;;;9.52;;
65825;SDS011;52586;-43.152;172.732;2022-07-06T08:46:48;14.52;;;9.13;;
65825;SDS011;52586;-43.152;172.732;2022-07-06T08:49:20;17.20;;;9.23;;
65825;SDS011;52586;-43.152;172.732;2022-07-06T08:51:52;16.88;;;9.43;;
65825;SDS011;52586;-43.152;172.732;2022-07-06T08:54:25;18.75;;;9.23;;
65825;SDS011;52586;-43.152;172.732;2022-07-06T08:56:57;16.50;;;8.80;;
65825;SDS011;52586;-43.152;172.732;2022-07-06T08:59:28;15.45;;;9.18;;
65825;SDS011;52586;-43.152;172.732;2022-07-06T09:01:59;14.68;;;9.35;;
65825;SDS011;52586;-43.152;172.732;2022-07-06T09:04:32;13.75;;;8.65;;
65825;SDS011;52586;-43.152;172.732;2022-07-06T09:07:04;14.88;;;8.15;;
65825;SDS011;52586;-43.152;172.732;2022-07-06T09:09:36;17.77;;;9.13;;
65825;SDS011;52586;-43.152;172.732;2022-07-06T09:12:10;14.13;;;8.32;;
65825;SDS011;52586;-43.152;172.732;2022-07-06T09:14:41;13.20;;;8.45;;
65825;SDS011;52586;-43.152;172.732;2022-07-06T09:17:12;17.73;;;9.10;;
65825;SDS011;52586;-43.152;172.732;2022-07-06T09:19:43;15.98;;;8.73;;
65825;SDS011;52586;-43.152;172.732;2022-07-06T09:22:25;14.52;;;8.68;;
65825;SDS011;52586;-43.152;172.732;2022-07-06T09:25:06;17.35;;;9.10;;
65825;SDS011;52586;-43.152;172.732;2022-07-06T09:27:38;13.52;;;7.65;;
65825;SDS011;52586;-43.152;172.732;2022-07-06T09:30:09;14.98;;;7.82;;
65825;SDS011;52586;-43.152;172.732;2022-07-06T09:32:40;14.35;;;8.05;;
65825;SDS011;52586;-43.152;172.732;2022-07-06T09:35:19;12.38;;;7.50;;
65825;SDS011;52586;-43.152;172.732;2022-07-06T09:37:59;15.35;;;8.50;;
65825;SDS011;52586;-43.152;172.732;2022-07-06T09:40:34;12.30;;;7.55;;
65825;SDS011;52586;-43.152;172.732;2022-07-06T09:43:09;19.70;;;9.73;;
65825;SDS011;52586;-43.152;172.732;2022-07-06T09:45:41;20.23;;;10.18;;
65825;SDS011;52586;-43.152;172.732;2022-07-06T09:48:13;19.27;;;9.88;;
65825;SDS011;52586;-43.152;172.732;2022-07-06T09:50:47;15.63;;;9.05;;
65825;SDS011;52586;-43.152;172.732;2022-07-06T09:53:19;15.65;;;9.32;;
65825;SDS011;52586;-43.152;172.732;2022-07-06T09:55:53;16.17;;;9.02;;
65825;SDS011;52586;-43.152;172.732;2022-07-06T09:58:24;15.90;;;9.32;;
65825;SDS011;52586;-43.152;172.732;2022-07-06T10:00:55;14.00;;;8.63;;
65825;SDS011;52586;-43.152;172.732;2022-07-06T10:03:25;14.50;;;8.27;;
65825;SDS011;52586;-43.152;172.732;2022-07-06T10:05:56;15.70;;;8.52;;
65825;SDS011;52586;-43.152;172.732;2022-07-06T10:08:27;15.50;;;8.70;;
65825;SDS011;52586;-43.152;172.732;2022-07-06T10:11:03;14.68;;;8.52;;
65825;SDS011;52586;-43.152;172.732;2022-07-06T10:13:39;16.98;;;9.38;;
65825;SDS011;52586;-43.152;172.732;2022-07-06T10:16:11;14.32;;;7.95;;
65825;SDS011;52586;-43.152;172.732;2022-07-06T10:18:42;17.55;;;8.30;;
65825;SDS011;52586;-43.152;172.732;2022-07-06T10:21:13;16.13;;;8.40;;
65825;SDS011;52586;-43.152;172.732;2022-07-06T10:23:44;15.10;;;8.52;;
65825;SDS011;52586;-43.152;172.732;2022-07-06T10:26:18;13.38;;;8.00;;
65825;SDS011;52586;-43.152;172.732;2022-07-06T10:28:50;15.30;;;7.88;;
65825;SDS011;52586;-43.152;172.732;2022-07-06T10:31:21;13.82;;;8.13;;
65825;SDS011;52586;-43.152;172.732;2022-07-06T10:33:52;15.68;;;8.07;;
65825;SDS011;52586;-43.152;172.732;2022-07-06T10:36:23;13.32;;;7.95;;
65825;SDS011;52586;-43.152;172.732;2022-07-06T10:38:54;11.35;;;7.53;;
65825;SDS011;52586;-43.152;172.732;2022-07-06T10:41:47;12.05;;;8.13;;
65825;SDS011;52586;-43.152;172.732;2022-07-06T10:44:17;11.95;;;7.38;;
65825;SDS011;52586;-43.152;172.732;2022-07-06T10:46:52;15.30;;;8.20;;
65825;SDS011;52586;-43.152;172.732;2022-07-06T10:49:24;11.50;;;7.18;;
65825;SDS011;52586;-43.152;172.732;2022-07-06T10:51:56;15.88;;;8.05;;
65825;SDS011;52586;-43.152;172.732;2022-07-06T10:54:27;11.98;;;7.25;;
65825;SDS011;52586;-43.152;172.732;2022-07-06T10:57:11;13.73;;;7.75;;
65825;SDS011;52586;-43.152;172.732;2022-07-06T11:02:30;12.95;;;8.27;;
65825;SDS011;52586;-43.152;172.732;2022-07-06T11:05:10;11.40;;;7.00;;
65825;SDS011;52586;-43.152;172.732;2022-07-06T11:08:01;14.05;;;7.63;;
65825;SDS011;52586;-43.152;172.732;2022-07-06T11:10:40;11.45;;;7.88;;
65825;SDS011;52586;-43.152;172.732;2022-07-06T11:13:28;13.25;;;7.18;;
65825;SDS011;52586;-43.152;172.732;2022-07-06T11:16:01;11.52;;;7.22;;
65825;SDS011;52586;-43.152;172.732;2022-07-06T11:18:38;11.50;;;6.93;;
65825;SDS011;52586;-43.152;172.732;2022-07-06T11:21:19;9.65;;;6.43;;
65825;SDS011;52586;-43.152;172.732;2022-07-06T11:23:51;11.90;;;6.95;;
65825;SDS011;52586;-43.152;172.732;2022-07-06T11:26:21;11.50;;;6.63;;
65825;SDS011;52586;-43.152;172.732;2022-07-06T11:28:55;11.27;;;7.57;;
65825;SDS011;52586;-43.152;172.732;2022-07-06T11:31:27;11.30;;;7.18;;
65825;SDS011;52586;-43.152;172.732;2022-07-06T11:33:57;11.10;;;6.65;;
65825;SDS011;52586;-43.152;172.732;2022-07-06T11:36:28;10.48;;;6.43;;
65825;SDS011;52586;-43.152;172.732;2022-07-06T11:38:59;10.30;;;6.85;;
65825;SDS011;52586;-43.152;172.732;2022-07-06T11:41:31;10.48;;;6.35;;
65825;SDS011;52586;-43.152;172.732;2022-07-06T11:44:05;11.07;;;7.07;;
65825;SDS011;52586;-43.152;172.732;2022-07-06T11:46:35;11.23;;;6.50;;
65825;SDS011;52586;-43.152;172.732;2022-07-06T11:49:07;11.85;;;7.03;;
65825;SDS011;52586;-43.152;172.732;2022-07-06T11:51:38;11.65;;;6.57;;
65825;SDS011;52586;-43.152;172.732;2022-07-06T11:54:10;11.88;;;6.97;;
65825;SDS011;52586;-43.152;172.732;2022-07-06T11:56:45;10.00;;;6.40;;
65825;SDS011;52586;-43.152;172.732;2022-07-06T11:59:22;11.27;;;6.18;;
65825;SDS011;52586;-43.152;172.732;2022-07-06T12:02:00;9.75;;;6.13;;
65825;SDS011;52586;-43.152;172.732;2022-07-06T12:04:31;9.60;;;6.40;;
65825;SDS011;52586;-43.152;172.732;2022-07-06T12:07:03;10.38;;;6.13;;
65825;SDS011;52586;-43.152;172.732;2022-07-06T12:09:39;10.45;;;6.22;;
65825;SDS011;52586;-43.152;172.732;2022-07-06T12:12:11;9.93;;;6.00;;
65825;SDS011;52586;-43.152;172.732;2022-07-06T12:14:44;10.15;;;6.28;;
65825;SDS011;52586;-43.152;172.732;2022-07-06T12:17:15;9.57;;;5.60;;
65825;SDS011;52586;-43.152;172.732;2022-07-06T12:19:46;12.07;;;6.55;;
65825;SDS011;52586;-43.152;172.732;2022-07-06T12:22:24;9.90;;;5.88;;
65825;SDS011;52586;-43.152;172.732;2022-07-06T12:24:55;7.53;;;5.60;;
65825;SDS011;52586;-43.152;172.732;2022-07-06T12:27:26;12.10;;;5.80;;
65825;SDS011;52586;-43.152;172.732;2022-07-06T12:30:10;9.35;;;5.43;;
65825;SDS011;52586;-43.152;172.732;2022-07-06T12:32:42;9.55;;;6.32;;
65825;SDS011;52586;-43.152;172.732;2022-07-06T12:35:12;8.98;;;5.68;;
65825;SDS011;52586;-43.152;172.732;2022-07-06T12:37:54;9.13;;;5.78;;
65825;SDS011;52586;-43.152;172.732;2022-07-06T12:40:26;10.00;;;5.78;;
65825;SDS011;52586;-43.152;172.732;2022-07-06T12:42:57;8.30;;;5.90;;
65825;SDS011;52586;-43.152;172.732;2022-07-06T12:45:30;11.55;;;5.90;;
65825;SDS011;52586;-43.152;172.732;2022-07-06T12:48:01;8.98;;;5.57;;
65825;SDS011;52586;-43.152;172.732;2022-07-06T12:50:33;8.52;;;5.38;;
65825;SDS011;52586;-43.152;172.732;2022-07-06T12:53:05;7.65;;;5.20;;
65825;SDS011;52586;-43.152;172.732;2022-07-06T12:58:39;8.23;;;5.05;;
65825;SDS011;52586;-43.152;172.732;2022-07-06T13:01:24;10.32;;;5.72;;
65825;SDS011;52586;-43.152;172.732;2022-07-06T13:03:55;10.80;;;5.82;;
65825;SDS011;52586;-43.152;172.732;2022-07-06T13:06:30;10.27;;;5.70;;
65825;SDS011;52586;-43.152;172.732;2022-07-06T13:09:03;10.23;;;5.53;;
65825;SDS011;52586;-43.152;172.732;2022-07-06T13:11:33;9.32;;;5.47;;
65825;SDS011;52586;-43.152;172.732;2022-07-06T13:14:04;10.48;;;5.40;;
65825;SDS011;52586;-43.152;172.732;2022-07-06T13:16:37;8.57;;;5.55;;
65825;SDS011;52586;-43.152;172.732;2022-07-06T13:19:07;9.95;;;5.60;;
65825;SDS011;52586;-43.152;172.732;2022-07-06T13:21:38;7.60;;;5.13;;
65825;SDS011;52586;-43.152;172.732;2022-07-06T13:24:11;10.18;;;5.72;;
65825;SDS011;52586;-43.152;172.732;2022-07-06T13:26:42;10.25;;;5.70;;
65825;SDS011;52586;-43.152;172.732;2022-07-06T13:29:13;7.75;;;5.18;;
65825;SDS011;52586;-43.152;172.732;2022-07-06T13:31:45;10.00;;;5.45;;
65825;SDS011;52586;-43.152;172.732;2022-07-06T13:34:16;9.20;;;5.53;;
65825;SDS011;52586;-43.152;172.732;2022-07-06T13:36:46;9.15;;;4.95;;
65825;SDS011;52586;-43.152;172.732;2022-07-06T13:39:17;9.07;;;5.35;;
65825;SDS011;52586;-43.152;172.732;2022-07-06T13:41:48;7.88;;;5.43;;
65825;SDS011;52586;-43.152;172.732;2022-07-06T13:44:18;9.77;;;5.40;;
65825;SDS011;52586;-43.152;172.732;2022-07-06T13:46:51;7.85;;;5.05;;
65825;SDS011;52586;-43.152;172.732;2022-07-06T13:49:22;8.75;;;5.30;;
65825;SDS011;52586;-43.152;172.732;2022-07-06T13:51:52;8.70;;;4.75;;
65825;SDS011;52586;-43.152;172.732;2022-07-06T13:54:29;6.80;;;5.43;;
65825;SDS011;52586;-43.152;172.732;2022-07-06T13:57:02;8.80;;;4.78;;
65825;SDS011;52586;-43.152;172.732;2022-07-06T13:59:33;7.57;;;5.15;;
65825;SDS011;52586;-43.152;172.732;2022-07-06T14:02:06;7.88;;;4.82;;
65825;SDS011;52586;-43.152;172.732;2022-07-06T14:04:37;7.93;;;5.35;;
65825;SDS011;52586;-43.152;172.732;2022-07-06T14:07:07;7.03;;;4.95;;
65825;SDS011;52586;-43.152;172.732;2022-07-06T14:09:38;8.15;;;5.10;;
65825;SDS011;52586;-43.152;172.732;2022-07-06T14:12:09;6.90;;;4.53;;
65825;SDS011;52586;-43.152;172.732;2022-07-06T14:14:40;8.05;;;4.70;;
65825;SDS011;52586;-43.152;172.732;2022-07-06T14:17:12;7.25;;;4.28;;
65825;SDS011;52586;-43.152;172.732;2022-07-06T14:19:43;7.07;;;4.10;;
65825;SDS011;52586;-43.152;172.732;2022-07-06T14:22:14;6.90;;;4.53;;
65825;SDS011;52586;-43.152;172.732;2022-07-06T14:24:44;6.18;;;3.88;;
65825;SDS011;52586;-43.152;172.732;2022-07-06T14:27:15;7.85;;;4.90;;
65825;SDS011;52586;-43.152;172.732;2022-07-06T14:29:46;8.38;;;4.50;;
65825;SDS011;52586;-43.152;172.732;2022-07-06T14:32:18;6.80;;;4.80;;